createdAt,value
2018-05-29T00:00:05.634Z,1002.20
2018-05-29T00:01:05.649Z,1002.17
2018-05-29T00:02:05.703Z,1002.19
2018-05-29T00:03:05.738Z,1002.13
2018-05-29T00:04:05.728Z,1002.10
2018-05-29T00:05:05.747Z,1002.12
2018-05-29T00:06:05.770Z,1002.10
2018-05-29T00:07:05.779Z,1002.05
2018-05-29T00:08:05.801Z,1002.09
2018-05-29T00:09:05.821Z,1002.09
2018-05-29T00:10:05.843Z,1002.06
2018-05-29T00:11:05.879Z,1002.06
2018-05-29T00:12:05.895Z,1002.07
2018-05-29T00:13:05.912Z,1002.06
2018-05-29T00:14:05.930Z,1002.03
2018-05-29T00:15:05.967Z,1002.03
2018-05-29T00:16:06.005Z,1002.06
2018-05-29T00:17:06.009Z,1002.05
2018-05-29T00:18:06.038Z,1002.08
2018-05-29T00:19:06.068Z,1002.07
2018-05-29T00:20:06.088Z,1002.04
2018-05-29T00:21:06.090Z,1002.04
2018-05-29T00:22:06.111Z,1002.00
2018-05-29T00:23:06.128Z,1001.94
2018-05-29T00:24:06.155Z,1001.93
2018-05-29T00:25:06.174Z,1001.88
2018-05-29T00:26:06.186Z,1001.90
2018-05-29T00:27:06.239Z,1001.87
2018-05-29T00:28:06.243Z,1001.87
2018-05-29T00:29:06.252Z,1001.88
2018-05-29T00:30:06.282Z,1001.85
2018-05-29T00:31:06.294Z,1001.83
2018-05-29T00:32:06.320Z,1001.81
2018-05-29T00:33:06.344Z,1001.85
2018-05-29T00:34:06.394Z,1001.84
2018-05-29T00:35:06.380Z,1001.82
2018-05-29T00:36:06.412Z,1001.82
2018-05-29T00:37:06.438Z,1001.78
2018-05-29T00:38:06.440Z,1001.73
2018-05-29T00:39:06.461Z,1001.72
2018-05-29T00:40:06.496Z,1001.65
2018-05-29T00:41:06.509Z,1001.65
2018-05-29T00:42:06.533Z,1001.63
2018-05-29T00:43:06.543Z,1001.62
2018-05-29T00:44:06.584Z,1001.60
2018-05-29T00:45:06.594Z,1001.59
2018-05-29T00:46:06.612Z,1001.58
2018-05-29T00:47:06.646Z,1001.55
2018-05-29T00:48:06.650Z,1001.54
2018-05-29T00:49:06.679Z,1001.56
2018-05-29T00:50:06.713Z,1001.51
2018-05-29T00:51:06.716Z,1001.53
2018-05-29T00:52:06.741Z,1001.54
2018-05-29T00:53:06.762Z,1001.50
2018-05-29T00:54:06.784Z,1001.49
2018-05-29T00:55:06.800Z,1001.48
2018-05-29T00:56:06.830Z,1001.49
2018-05-29T00:57:06.849Z,1001.46
2018-05-29T00:58:06.881Z,1001.45
2018-05-29T00:59:06.883Z,1001.42
2018-05-29T01:00:06.910Z,1001.42
2018-05-29T01:01:06.998Z,1001.41
2018-05-29T01:02:06.981Z,1001.42
2018-05-29T01:03:06.989Z,1001.43
2018-05-29T01:04:07.011Z,1001.46
2018-05-29T01:05:07.027Z,1001.44
2018-05-29T01:06:07.036Z,1001.42
2018-05-29T01:07:07.061Z,1001.46
2018-05-29T01:08:07.080Z,1001.47
2018-05-29T01:09:07.100Z,1001.44
2018-05-29T01:10:07.145Z,1001.42
2018-05-29T01:11:07.147Z,1001.45
2018-05-29T01:12:07.172Z,1001.44
2018-05-29T01:13:07.198Z,1001.43
2018-05-29T01:14:07.213Z,1001.47
2018-05-29T01:15:07.247Z,1001.46
2018-05-29T01:16:07.252Z,1001.46
2018-05-29T01:17:07.284Z,1001.44
2018-05-29T01:18:07.293Z,1001.42
2018-05-29T01:19:07.318Z,1001.44
2018-05-29T01:20:07.334Z,1001.48
2018-05-29T01:21:07.360Z,1001.47
2018-05-29T01:22:07.393Z,1001.50
2018-05-29T01:23:07.395Z,1001.42
2018-05-29T01:24:07.455Z,1001.39
2018-05-29T01:25:07.443Z,1001.40
2018-05-29T01:26:07.475Z,1001.39
2018-05-29T01:27:07.504Z,1001.36
2018-05-29T01:28:07.502Z,1001.39
2018-05-29T01:29:07.543Z,1001.41
2018-05-29T01:30:07.543Z,1001.39
2018-05-29T01:31:07.589Z,1001.37
2018-05-29T01:32:07.619Z,1001.33
2018-05-29T01:33:07.614Z,1001.33
2018-05-29T01:34:07.636Z,1001.39
2018-05-29T01:35:07.653Z,1001.35
2018-05-29T01:36:07.688Z,1001.35
2018-05-29T01:37:07.702Z,1001.36
2018-05-29T01:38:07.738Z,1001.36
2018-05-29T01:39:07.733Z,1001.33
2018-05-29T01:40:07.761Z,1001.32
2018-05-29T01:41:07.787Z,1001.33
2018-05-29T01:42:07.798Z,1001.36
2018-05-29T01:43:07.821Z,1001.32
2018-05-29T01:44:07.850Z,1001.33
2018-05-29T01:45:07.858Z,1001.28
2018-05-29T01:46:07.881Z,1001.32
2018-05-29T01:47:07.922Z,1001.33
2018-05-29T01:48:07.939Z,1001.32
2018-05-29T01:49:07.955Z,1001.37
2018-05-29T01:50:07.981Z,1001.38
2018-05-29T01:51:08.016Z,1001.44
2018-05-29T01:52:08.012Z,1001.39
2018-05-29T01:53:08.033Z,1001.39
2018-05-29T01:54:08.056Z,1001.40
2018-05-29T01:55:08.085Z,1001.34
2018-05-29T01:56:08.095Z,1001.36
2018-05-29T01:57:08.134Z,1001.33
2018-05-29T01:58:08.142Z,1001.31
2018-05-29T01:59:08.177Z,1001.26
2018-05-29T02:00:08.183Z,1001.25
2018-05-29T02:01:08.217Z,1001.24
2018-05-29T02:02:08.216Z,1001.24
2018-05-29T02:03:08.242Z,1001.25
2018-05-29T02:04:08.260Z,1001.28
2018-05-29T02:05:08.293Z,1001.20
2018-05-29T02:06:08.305Z,1001.21
2018-05-29T02:07:08.328Z,1001.19
2018-05-29T02:08:08.352Z,1001.20
2018-05-29T02:09:08.365Z,1001.16
2018-05-29T02:10:08.392Z,1001.18
2018-05-29T02:11:08.409Z,1001.16
2018-05-29T02:12:08.442Z,1001.15
2018-05-29T02:13:08.459Z,1001.15
2018-05-29T02:14:08.487Z,1001.18
2018-05-29T02:15:08.497Z,1001.16
2018-05-29T02:16:08.516Z,1001.19
2018-05-29T02:17:08.549Z,1001.16
2018-05-29T02:18:08.554Z,1001.17
2018-05-29T02:19:08.573Z,1001.20
2018-05-29T02:20:08.597Z,1001.15
2018-05-29T02:21:08.631Z,1001.18
2018-05-29T02:22:08.697Z,1001.15
2018-05-29T02:23:08.659Z,1001.15
2018-05-29T02:24:08.685Z,1001.15
2018-05-29T02:25:08.709Z,1001.17
2018-05-29T02:26:08.723Z,1001.16
2018-05-29T02:27:08.746Z,1001.14
2018-05-29T02:28:08.774Z,1001.12
2018-05-29T02:29:08.790Z,1001.15
2018-05-29T02:30:08.809Z,1001.13
2018-05-29T02:31:08.838Z,1001.16
2018-05-29T02:32:08.861Z,1001.08
2018-05-29T02:33:08.876Z,1001.12
2018-05-29T02:34:08.906Z,1001.05
2018-05-29T02:35:08.910Z,1001.07
2018-05-29T02:36:08.935Z,1001.07
2018-05-29T02:37:08.955Z,1001.02
2018-05-29T02:38:08.992Z,1001.02
2018-05-29T02:39:09.000Z,1001.02
2018-05-29T02:40:09.028Z,1001.06
2018-05-29T02:41:09.036Z,1001.00
2018-05-29T02:42:09.059Z,1001.01
2018-05-29T02:43:09.076Z,1001.05
2018-05-29T02:44:09.104Z,1001.03
2018-05-29T02:45:09.127Z,1001.03
2018-05-29T02:46:09.185Z,1001.08
2018-05-29T02:47:09.171Z,1001.04
2018-05-29T02:48:09.188Z,1001.08
2018-05-29T02:49:09.226Z,1001.08
2018-05-29T02:50:09.241Z,1001.11
2018-05-29T02:51:09.260Z,1001.11
2018-05-29T02:52:09.275Z,1001.11
2018-05-29T02:53:09.298Z,1001.13
2018-05-29T02:54:09.308Z,1001.11
2018-05-29T02:55:09.352Z,1001.12
2018-05-29T02:56:09.358Z,1001.10
2018-05-29T02:57:09.392Z,1001.09
2018-05-29T02:58:09.412Z,1001.12
2018-05-29T02:59:09.413Z,1001.15
2018-05-29T03:00:09.458Z,1001.15
2018-05-29T03:01:09.456Z,1001.17
2018-05-29T03:02:09.489Z,1001.21
2018-05-29T03:03:09.501Z,1001.21
2018-05-29T03:04:09.517Z,1001.18
2018-05-29T03:05:09.570Z,1001.19
2018-05-29T03:06:09.574Z,1001.21
2018-05-29T03:07:09.590Z,1001.19
2018-05-29T03:08:09.605Z,1001.21
2018-05-29T03:09:09.621Z,1001.24
2018-05-29T03:10:09.653Z,1001.27
2018-05-29T03:11:09.673Z,1001.26
2018-05-29T03:12:09.696Z,1001.29
2018-05-29T03:13:09.717Z,1001.27
2018-05-29T03:14:09.741Z,1001.25
2018-05-29T03:15:09.748Z,1001.26
2018-05-29T03:16:09.777Z,1001.26
2018-05-29T03:17:09.805Z,1001.23
2018-05-29T03:18:09.837Z,1001.25
2018-05-29T03:19:09.839Z,1001.26
2018-05-29T03:20:09.879Z,1001.24
2018-05-29T03:21:09.890Z,1001.27
2018-05-29T03:22:09.904Z,1001.25
2018-05-29T03:23:09.932Z,1001.30
2018-05-29T03:24:09.937Z,1001.28
2018-05-29T03:25:09.966Z,1001.31
2018-05-29T03:26:09.993Z,1001.34
2018-05-29T03:27:10.038Z,1001.32
2018-05-29T03:28:10.041Z,1001.32
2018-05-29T03:29:10.043Z,1001.36
2018-05-29T03:30:10.062Z,1001.36
2018-05-29T03:31:10.123Z,1001.37
2018-05-29T03:32:10.103Z,1001.39
2018-05-29T03:33:10.151Z,1001.39
2018-05-29T03:34:10.150Z,1001.39
2018-05-29T03:35:10.191Z,1001.38
2018-05-29T03:36:10.195Z,1001.37
2018-05-29T03:37:10.210Z,1001.33
2018-05-29T03:38:10.231Z,1001.33
2018-05-29T03:39:10.263Z,1001.32
2018-05-29T03:40:10.282Z,1001.32
2018-05-29T03:41:10.291Z,1001.32
2018-05-29T03:42:10.329Z,1001.29
2018-05-29T03:43:10.339Z,1001.37
2018-05-29T03:44:10.360Z,1001.32
2018-05-29T03:45:10.377Z,1001.33
2018-05-29T03:46:10.407Z,1001.33
2018-05-29T03:47:10.415Z,1001.34
2018-05-29T03:48:10.444Z,1001.36
2018-05-29T03:49:10.458Z,1001.38
2018-05-29T03:50:10.489Z,1001.36
2018-05-29T03:51:10.509Z,1001.34
2018-05-29T03:52:10.523Z,1001.36
2018-05-29T03:53:10.572Z,1001.29
2018-05-29T03:54:10.565Z,1001.33
2018-05-29T03:55:10.583Z,1001.37
2018-05-29T03:56:10.616Z,1001.37
2018-05-29T03:57:10.635Z,1001.35
2018-05-29T03:58:10.695Z,1001.37
2018-05-29T03:59:10.667Z,1001.43
2018-05-29T04:00:10.694Z,1001.44
2018-05-29T04:01:10.720Z,1001.35
2018-05-29T04:02:10.747Z,1001.32
2018-05-29T04:03:10.758Z,1001.35
2018-05-29T04:04:10.779Z,1001.38
2018-05-29T04:05:10.819Z,1001.38
2018-05-29T04:06:10.830Z,1001.38
2018-05-29T04:07:10.847Z,1001.43
2018-05-29T04:08:10.907Z,1001.41
2018-05-29T04:09:10.884Z,1001.46
2018-05-29T04:10:10.902Z,1001.48
2018-05-29T04:11:10.929Z,1001.49
2018-05-29T04:12:10.950Z,1001.51
2018-05-29T04:13:10.963Z,1001.51
2018-05-29T04:14:10.989Z,1001.48
2018-05-29T04:15:11.025Z,1001.49
2018-05-29T04:16:11.034Z,1001.48
2018-05-29T04:17:11.083Z,1001.48
2018-05-29T04:18:11.071Z,1001.42
2018-05-29T04:19:11.099Z,1001.45
2018-05-29T04:20:11.137Z,1001.42
2018-05-29T04:21:11.139Z,1001.42
2018-05-29T04:22:11.164Z,1001.46
2018-05-29T04:23:11.189Z,1001.39
2018-05-29T04:24:11.228Z,1001.44
2018-05-29T04:25:11.221Z,1001.44
2018-05-29T04:26:11.248Z,1001.40
2018-05-29T04:27:11.303Z,1001.42
2018-05-29T04:28:11.287Z,1001.41
2018-05-29T04:29:11.309Z,1001.43
2018-05-29T04:30:11.338Z,1001.38
2018-05-29T04:31:11.361Z,1001.41
2018-05-29T04:32:11.373Z,1001.45
2018-05-29T04:33:11.394Z,1001.43
2018-05-29T04:34:11.417Z,1001.39
2018-05-29T04:35:11.453Z,1001.40
2018-05-29T04:36:11.468Z,1001.39
2018-05-29T04:37:11.483Z,1001.38
2018-05-29T04:38:11.507Z,1001.40
2018-05-29T04:39:11.526Z,1001.36
2018-05-29T04:40:11.554Z,1001.37
2018-05-29T04:41:11.590Z,1001.40
2018-05-29T04:42:11.591Z,1001.39
2018-05-29T04:43:11.607Z,1001.38
2018-05-29T04:44:11.634Z,1001.38
2018-05-29T04:45:11.670Z,1001.43
2018-05-29T04:46:11.683Z,1001.48
2018-05-29T04:47:11.709Z,1001.47
2018-05-29T04:48:11.720Z,1001.47
2018-05-29T04:49:11.741Z,1001.51
2018-05-29T04:50:11.760Z,1001.53
2018-05-29T04:51:11.785Z,1001.80
2018-05-29T04:52:11.832Z,1001.98
2018-05-29T04:53:11.833Z,1002.00
2018-05-29T04:54:11.858Z,1002.03
2018-05-29T04:55:11.876Z,1002.01
2018-05-29T04:56:11.896Z,1001.99
2018-05-29T04:57:11.934Z,1002.03
2018-05-29T04:58:11.963Z,1002.06
2018-05-29T04:59:11.988Z,1002.09
2018-05-29T05:00:11.991Z,1002.05
2018-05-29T05:01:12.024Z,1002.06
2018-05-29T05:02:12.050Z,1002.06
2018-05-29T05:03:12.076Z,1002.10
2018-05-29T05:04:12.107Z,1002.10
2018-05-29T05:05:12.126Z,1002.06
2018-05-29T05:06:12.153Z,1002.12
2018-05-29T05:07:12.195Z,1002.11
2018-05-29T05:08:12.203Z,1002.07
2018-05-29T05:09:12.217Z,1002.11
2018-05-29T05:10:12.240Z,1002.16
2018-05-29T05:11:12.298Z,1002.13
2018-05-29T05:12:12.297Z,1002.17
2018-05-29T05:13:12.336Z,1002.19
2018-05-29T05:14:12.357Z,1002.16
2018-05-29T05:15:12.388Z,1002.19
2018-05-29T05:16:12.413Z,1002.17
2018-05-29T05:17:12.443Z,1002.16
2018-05-29T05:18:12.460Z,1002.22
2018-05-29T05:19:12.519Z,1002.23
2018-05-29T05:20:12.551Z,1002.27
2018-05-29T05:21:12.560Z,1002.23
2018-05-29T05:22:12.581Z,1002.23
2018-05-29T05:23:12.599Z,1002.26
2018-05-29T05:24:12.639Z,1002.26
2018-05-29T05:25:12.653Z,1002.31
2018-05-29T05:26:12.681Z,1002.31
2018-05-29T05:27:12.714Z,1002.36
2018-05-29T05:28:12.735Z,1002.34
2018-05-29T05:29:12.760Z,1002.39
2018-05-29T05:30:12.807Z,1002.38
2018-05-29T05:31:12.816Z,1002.37
2018-05-29T05:32:12.851Z,1002.38
2018-05-29T05:33:12.893Z,1002.40
2018-05-29T05:34:12.905Z,1002.44
2018-05-29T05:35:12.952Z,1002.43
2018-05-29T05:36:12.964Z,1002.47
2018-05-29T05:37:12.993Z,1002.49
2018-05-29T05:38:13.038Z,1002.52
2018-05-29T05:39:13.085Z,1002.50
2018-05-29T05:40:13.092Z,1002.42
2018-05-29T05:41:13.122Z,1002.40
2018-05-29T05:42:13.149Z,1002.37
2018-05-29T05:43:13.171Z,1002.38
2018-05-29T05:44:13.190Z,1002.49
2018-05-29T05:45:13.231Z,1002.53
2018-05-29T05:46:13.271Z,1002.65
2018-05-29T05:47:13.288Z,1002.76
2018-05-29T05:48:13.316Z,1002.84
2018-05-29T05:49:13.347Z,1002.87
2018-05-29T05:50:13.380Z,1002.86
2018-05-29T05:51:13.401Z,1002.89
2018-05-29T05:52:13.444Z,1002.90
2018-05-29T05:53:13.479Z,1002.88
2018-05-29T05:54:13.493Z,1002.94
2018-05-29T05:55:13.531Z,1003.02
2018-05-29T05:56:13.559Z,1002.96
2018-05-29T05:57:13.603Z,1003.04
2018-05-29T05:58:13.617Z,1003.12
2018-05-29T05:59:13.653Z,1003.13
2018-05-29T06:00:13.681Z,1003.09
2018-05-29T06:01:13.704Z,1003.12
2018-05-29T06:02:13.739Z,1003.08
2018-05-29T06:03:13.779Z,1003.09
2018-05-29T06:04:13.796Z,1003.11
2018-05-29T06:05:13.868Z,1003.20
2018-05-29T06:06:13.856Z,1003.33
2018-05-29T06:07:13.901Z,1003.42
2018-05-29T06:08:13.916Z,1003.47
2018-05-29T06:09:13.949Z,1003.65
2018-05-29T06:10:13.994Z,1003.85
2018-05-29T06:11:14.036Z,1003.86
2018-05-29T06:12:14.057Z,1003.86
2018-05-29T06:13:14.073Z,1004.26
2018-05-29T06:14:14.113Z,1004.53
2018-05-29T06:15:14.170Z,1004.39
2018-05-29T06:16:14.193Z,1004.33
2018-05-29T06:17:14.214Z,1004.57
2018-05-29T06:18:14.244Z,1004.73
2018-05-29T06:19:14.261Z,1004.76
2018-05-29T06:20:14.294Z,1004.78
2018-05-29T06:21:14.339Z,1004.91
2018-05-29T06:22:14.349Z,1005.39
2018-05-29T06:23:14.386Z,1005.69
2018-05-29T06:24:14.436Z,1005.47
2018-05-29T06:25:14.449Z,1005.64
2018-05-29T06:26:14.478Z,1005.95
2018-05-29T06:27:14.515Z,1006.01
2018-05-29T06:28:14.545Z,1006.06
2018-05-29T06:29:14.586Z,1006.20
2018-05-29T06:30:14.627Z,1006.38
2018-05-29T06:31:14.643Z,1006.29
2018-05-29T06:32:14.680Z,1006.15
2018-05-29T06:33:14.699Z,1006.47
2018-05-29T06:34:14.735Z,1007.02
2018-05-29T06:35:14.762Z,1007.02
2018-05-29T06:36:14.822Z,1006.62
2018-05-29T06:37:14.825Z,1006.71
2018-05-29T06:38:14.944Z,1007.17
2018-05-29T06:39:14.888Z,1007.46
2018-05-29T06:40:14.930Z,1007.13
2018-05-29T06:41:14.975Z,1007.12
2018-05-29T06:42:14.993Z,1007.81
2018-05-29T06:43:15.050Z,1008.04
2018-05-29T06:44:15.079Z,1008.16
2018-05-29T06:45:15.083Z,1008.64
2018-05-29T06:46:15.111Z,1008.76
2018-05-29T06:47:15.156Z,1008.84
2018-05-29T06:48:15.180Z,1008.84
2018-05-29T06:49:15.208Z,1008.68
2018-05-29T06:50:15.243Z,1008.83
2018-05-29T06:51:15.278Z,1009.23
2018-05-29T06:52:15.307Z,1009.72
2018-05-29T06:53:15.350Z,1010.49
2018-05-29T06:54:15.380Z,1010.95
2018-05-29T06:55:15.406Z,1010.65
2018-05-29T06:56:15.436Z,1010.00
2018-05-29T06:57:15.465Z,1009.89
2018-05-29T06:58:15.499Z,1010.29
2018-05-29T06:59:15.527Z,1010.73
2018-05-29T07:00:15.567Z,1011.23
2018-05-29T07:01:15.607Z,1010.92
2018-05-29T07:02:15.636Z,1010.62
2018-05-29T07:03:15.666Z,1011.13
2018-05-29T07:04:15.705Z,1011.80
2018-05-29T07:05:15.758Z,1011.92
2018-05-29T07:06:15.751Z,1011.54
2018-05-29T07:07:15.796Z,1011.43
2018-05-29T07:08:15.811Z,1011.68
2018-05-29T07:09:15.879Z,1012.23
2018-05-29T07:10:15.881Z,1012.16
2018-05-29T07:11:15.911Z,1011.94
2018-05-29T07:12:15.937Z,1011.93
2018-05-29T07:13:15.970Z,1012.24
2018-05-29T07:14:16.016Z,1012.39
2018-05-29T07:15:16.035Z,1012.11
2018-05-29T07:16:16.077Z,1011.82
2018-05-29T07:17:16.168Z,1010.99
2018-05-29T07:18:16.157Z,1010.89
2018-05-29T07:19:16.157Z,1011.59
2018-05-29T07:20:16.187Z,1012.15
2018-05-29T07:21:16.223Z,1012.04
2018-05-29T07:22:16.245Z,1011.53
2018-05-29T07:23:16.277Z,1011.72
2018-05-29T07:24:16.308Z,1012.24
2018-05-29T07:25:16.332Z,1012.44
2018-05-29T07:26:16.373Z,1012.65
2018-05-29T07:27:16.510Z,1013.13
2018-05-29T07:28:16.470Z,1013.56
2018-05-29T07:29:16.462Z,1013.28
2018-05-29T07:30:16.512Z,1012.88
2018-05-29T07:31:16.532Z,1012.23
2018-05-29T07:32:16.561Z,1012.27
2018-05-29T07:33:16.586Z,1012.92
2018-05-29T07:34:16.612Z,1013.15
2018-05-29T07:35:16.655Z,1012.54
2018-05-29T07:36:16.677Z,1011.78
2018-05-29T07:37:16.707Z,1011.19
2018-05-29T07:38:16.741Z,1011.44
2018-05-29T07:39:16.766Z,1012.49
2018-05-29T07:40:16.801Z,1013.51
2018-05-29T07:41:16.830Z,1014.15
2018-05-29T07:42:16.868Z,1014.01
2018-05-29T07:43:16.939Z,1013.43
2018-05-29T07:44:16.925Z,1013.32
2018-05-29T07:45:17.036Z,1014.00
2018-05-29T07:46:17.001Z,1014.50
2018-05-29T07:47:17.020Z,1014.13
2018-05-29T07:48:17.057Z,1013.95
2018-05-29T07:49:17.077Z,1013.99
2018-05-29T07:50:17.105Z,1013.73
2018-05-29T07:51:17.170Z,1013.16
2018-05-29T07:52:17.199Z,1013.05
2018-05-29T07:53:17.207Z,1013.43
2018-05-29T07:54:17.254Z,1012.88
2018-05-29T07:55:17.293Z,1012.81
2018-05-29T07:56:17.291Z,1013.75
2018-05-29T07:57:17.327Z,1014.61
2018-05-29T07:58:17.370Z,1014.64
2018-05-29T07:59:17.387Z,1014.91
2018-05-29T08:00:17.432Z,1016.06
2018-05-29T08:01:17.476Z,1016.75
2018-05-29T08:02:17.480Z,1015.12
2018-05-29T08:03:17.525Z,1015.35
2018-05-29T08:04:17.581Z,1015.61
2018-05-29T08:05:17.617Z,1016.29
2018-05-29T08:06:17.607Z,1016.11
2018-05-29T08:07:17.629Z,1015.28
2018-05-29T08:08:17.658Z,1014.30
2018-05-29T08:09:17.701Z,1013.40
2018-05-29T08:10:17.734Z,1014.07
2018-05-29T08:11:17.763Z,1015.34
2018-05-29T08:12:17.800Z,1015.42
2018-05-29T08:13:17.812Z,1014.10
2018-05-29T08:14:17.855Z,1013.30
2018-05-29T08:15:17.881Z,1011.34
2018-05-29T08:16:17.904Z,1007.78
2018-05-29T08:17:17.942Z,1004.35
2018-05-29T08:18:17.976Z,1009.45
2018-05-29T08:19:17.999Z,1007.16
2018-05-29T08:20:18.024Z,1002.67
2018-05-29T08:21:18.068Z,1001.72
2018-05-29T08:22:18.104Z,1006.87
2018-05-29T08:23:18.117Z,1001.84
2018-05-29T08:24:18.154Z,1001.22
2018-05-29T08:25:18.180Z,1001.24
2018-05-29T08:26:18.208Z,1001.60
2018-05-29T08:27:18.241Z,1001.68
2018-05-29T08:28:18.261Z,1001.78
2018-05-29T08:29:18.296Z,1001.41
2018-05-29T08:30:18.316Z,1001.07
2018-05-29T08:31:18.356Z,1000.96
2018-05-29T08:32:18.378Z,1000.87
2018-05-29T08:33:18.414Z,1000.88
2018-05-29T08:34:18.455Z,1000.86
2018-05-29T08:35:18.457Z,1000.89
2018-05-29T08:36:18.483Z,1001.07
2018-05-29T08:37:18.519Z,1001.39
2018-05-29T08:38:18.549Z,1001.31
2018-05-29T08:39:18.608Z,1001.10
2018-05-29T08:40:18.590Z,1001.16
2018-05-29T08:41:18.629Z,1001.11
2018-05-29T08:42:18.654Z,1001.41
2018-05-29T08:43:18.675Z,1001.16
2018-05-29T08:44:18.700Z,1001.00
2018-05-29T08:45:18.740Z,1000.90
2018-05-29T08:46:18.786Z,1000.99
2018-05-29T08:47:18.802Z,1001.08
2018-05-29T08:48:18.844Z,1001.08
2018-05-29T08:49:18.841Z,1001.16
2018-05-29T08:50:18.854Z,1000.77
2018-05-29T08:51:18.888Z,1000.49
2018-05-29T08:52:18.914Z,1000.40
2018-05-29T08:53:18.971Z,1000.39
2018-05-29T08:54:18.979Z,1000.44
2018-05-29T08:55:19.002Z,1000.40
2018-05-29T08:56:19.019Z,1000.45
2018-05-29T08:57:19.047Z,1000.49
2018-05-29T08:58:19.105Z,1000.57
2018-05-29T08:59:19.115Z,1000.62
2018-05-29T09:00:19.133Z,1000.53
2018-05-29T09:01:19.148Z,1000.57
2018-05-29T09:02:19.177Z,1000.72
2018-05-29T09:03:19.202Z,1000.66
2018-05-29T09:04:19.304Z,1000.44
2018-05-29T09:05:19.268Z,1000.45
2018-05-29T09:06:19.302Z,1000.43
2018-05-29T09:07:19.321Z,1000.36
2018-05-29T09:08:19.337Z,1000.37
2018-05-29T09:09:19.358Z,1000.32
2018-05-29T09:10:19.390Z,1000.23
2018-05-29T09:11:19.407Z,1000.20
2018-05-29T09:12:19.441Z,1000.23
2018-05-29T09:13:19.467Z,1000.29
2018-05-29T09:14:19.492Z,1000.31
2018-05-29T09:15:19.519Z,1000.41
2018-05-29T09:16:19.550Z,1000.48
2018-05-29T09:17:19.574Z,1000.54
2018-05-29T09:18:19.610Z,1000.58
2018-05-29T09:19:19.633Z,1000.59
2018-05-29T09:20:19.682Z,1000.52
2018-05-29T09:21:19.677Z,1000.46
2018-05-29T09:22:19.711Z,1000.44
2018-05-29T09:23:19.742Z,1000.39
2018-05-29T09:24:19.754Z,1000.43
2018-05-29T09:25:19.794Z,1000.45
2018-05-29T09:26:19.797Z,1000.46
2018-05-29T09:27:19.835Z,1000.52
2018-05-29T09:28:19.862Z,1000.51
2018-05-29T09:29:19.892Z,1000.50
2018-05-29T09:30:19.921Z,1000.48
2018-05-29T09:31:19.938Z,1000.43
2018-05-29T09:32:19.955Z,1000.48
2018-05-29T09:33:19.987Z,1000.39
2018-05-29T09:34:20.025Z,1000.40
2018-05-29T09:35:20.054Z,1000.37
2018-05-29T09:36:20.069Z,1000.31
2018-05-29T09:37:20.096Z,1000.28
2018-05-29T09:38:20.118Z,1000.24
2018-05-29T09:39:20.136Z,1000.28
2018-05-29T09:40:20.212Z,1000.28
2018-05-29T09:41:20.194Z,1000.29
2018-05-29T09:42:20.214Z,1000.34
2018-05-29T09:43:20.249Z,1000.37
2018-05-29T09:44:20.270Z,1000.38
2018-05-29T09:45:20.294Z,1000.43
2018-05-29T09:46:20.365Z,1000.47
2018-05-29T09:47:20.353Z,1000.42
2018-05-29T09:48:20.460Z,1000.36
2018-05-29T09:49:20.403Z,1000.33
2018-05-29T09:50:20.426Z,1000.24
2018-05-29T09:51:20.458Z,1000.25
2018-05-29T09:52:20.480Z,1000.24
2018-05-29T09:53:20.500Z,1000.23
2018-05-29T09:54:20.527Z,1000.21
2018-05-29T09:55:20.550Z,1000.19
2018-05-29T09:56:20.589Z,1000.17
2018-05-29T09:57:20.628Z,1000.21
2018-05-29T09:58:20.643Z,1000.14
2018-05-29T09:59:20.659Z,1000.18
2018-05-29T10:00:20.695Z,1000.14
2018-05-29T10:01:20.708Z,1000.06
2018-05-29T10:02:20.740Z,1000.07
2018-05-29T10:03:20.762Z,1000.01
2018-05-29T10:04:20.810Z,1000.03
2018-05-29T10:05:20.810Z,1000.03
2018-05-29T10:06:20.854Z,1000.03
2018-05-29T10:07:20.871Z,999.98
2018-05-29T10:08:20.911Z,999.96
2018-05-29T10:09:20.918Z,1000.00
2018-05-29T10:10:20.943Z,999.95
2018-05-29T10:11:21.043Z,999.94
2018-05-29T10:12:20.996Z,999.92
2018-05-29T10:13:21.027Z,999.90
2018-05-29T10:14:21.064Z,999.89
2018-05-29T10:15:21.093Z,999.88
2018-05-29T10:16:21.099Z,999.89
2018-05-29T10:17:21.136Z,999.84
2018-05-29T10:18:21.147Z,999.85
2018-05-29T10:19:21.185Z,999.75
2018-05-29T10:20:21.252Z,999.72
2018-05-29T10:21:21.235Z,999.75
2018-05-29T10:22:21.266Z,999.70
2018-05-29T10:23:21.324Z,999.65
2018-05-29T10:24:21.310Z,999.62
2018-05-29T10:25:21.333Z,999.59
2018-05-29T10:26:21.360Z,999.56
2018-05-29T10:27:21.394Z,999.51
2018-05-29T10:28:21.420Z,999.55
2018-05-29T10:29:21.449Z,999.50
2018-05-29T10:30:21.460Z,999.46
2018-05-29T10:31:21.488Z,999.49
2018-05-29T10:32:21.520Z,999.52
2018-05-29T10:33:21.552Z,999.56
2018-05-29T10:34:21.595Z,999.50
2018-05-29T10:35:21.603Z,999.51
2018-05-29T10:36:21.623Z,999.44
2018-05-29T10:37:21.646Z,999.46
2018-05-29T10:38:21.692Z,999.47
2018-05-29T10:39:21.713Z,999.44
2018-05-29T10:40:21.750Z,999.44
2018-05-29T10:41:21.777Z,999.49
2018-05-29T10:42:21.796Z,999.44
2018-05-29T10:43:21.823Z,999.46
2018-05-29T10:44:21.843Z,999.35
2018-05-29T10:45:21.861Z,999.39
2018-05-29T10:46:21.900Z,999.33
2018-05-29T10:47:21.915Z,999.36
2018-05-29T10:48:21.942Z,999.34
2018-05-29T10:49:21.989Z,999.34
2018-05-29T10:50:21.997Z,999.32
2018-05-29T10:51:22.014Z,999.28
2018-05-29T10:52:22.044Z,999.31
2018-05-29T10:53:22.065Z,999.21
2018-05-29T10:54:22.107Z,999.22
2018-05-29T10:55:22.124Z,999.25
2018-05-29T10:56:22.152Z,999.19
2018-05-29T10:57:22.179Z,999.13
2018-05-29T10:58:22.205Z,999.19
2018-05-29T10:59:22.234Z,999.07
2018-05-29T11:00:22.261Z,999.08
2018-05-29T11:01:22.304Z,999.13
2018-05-29T11:02:22.305Z,999.17
2018-05-29T11:03:22.332Z,999.09
2018-05-29T11:04:22.360Z,999.08
2018-05-29T11:05:22.388Z,999.13
2018-05-29T11:06:22.418Z,999.18
2018-05-29T11:07:22.445Z,999.18
2018-05-29T11:08:22.468Z,999.12
2018-05-29T11:09:22.512Z,999.13
2018-05-29T11:10:22.532Z,999.14
2018-05-29T11:11:22.542Z,999.04
2018-05-29T11:12:22.572Z,999.10
2018-05-29T11:13:22.619Z,999.04
2018-05-29T11:14:22.656Z,999.09
2018-05-29T11:15:22.649Z,999.08
2018-05-29T11:16:22.678Z,999.07
2018-05-29T11:17:22.705Z,999.06
2018-05-29T11:18:22.742Z,999.08
2018-05-29T11:19:22.761Z,999.11
2018-05-29T11:20:22.784Z,999.05
2018-05-29T11:21:22.815Z,999.00
2018-05-29T11:22:22.833Z,999.02
2018-05-29T11:23:22.868Z,999.04
2018-05-29T11:24:22.906Z,999.03
2018-05-29T11:25:22.932Z,998.99
2018-05-29T11:26:22.946Z,998.98
2018-05-29T11:27:22.981Z,998.99
2018-05-29T11:28:23.000Z,998.98
2018-05-29T11:29:23.051Z,999.02
2018-05-29T11:30:23.042Z,998.96
2018-05-29T11:31:23.081Z,998.92
2018-05-29T11:32:23.107Z,998.93
2018-05-29T11:33:23.124Z,998.98
2018-05-29T11:34:23.178Z,998.93
2018-05-29T11:35:23.192Z,998.95
2018-05-29T11:36:23.234Z,998.87
2018-05-29T11:37:23.227Z,998.81
2018-05-29T11:38:23.260Z,998.86
2018-05-29T11:39:23.283Z,998.81
2018-05-29T11:40:23.322Z,998.81
2018-05-29T11:41:23.352Z,998.80
2018-05-29T11:42:23.399Z,998.80
2018-05-29T11:43:23.427Z,998.76
2018-05-29T11:44:23.422Z,998.77
2018-05-29T11:45:23.445Z,998.77
2018-05-29T11:46:23.472Z,998.77
2018-05-29T11:47:23.493Z,998.72
2018-05-29T11:48:23.528Z,998.82
2018-05-29T11:49:23.551Z,998.77
2018-05-29T11:50:23.571Z,998.77
2018-05-29T11:51:23.604Z,998.74
2018-05-29T11:52:23.629Z,998.77
2018-05-29T11:53:23.665Z,998.67
2018-05-29T11:54:23.675Z,998.69
2018-05-29T11:55:23.713Z,998.71
2018-05-29T11:56:23.737Z,998.73
2018-05-29T11:57:23.776Z,998.72
2018-05-29T11:58:23.787Z,998.68
2018-05-29T11:59:23.814Z,998.65
2018-05-29T12:00:23.836Z,998.67
2018-05-29T12:01:23.866Z,998.66
2018-05-29T12:02:23.900Z,998.59
2018-05-29T12:03:23.912Z,998.60
2018-05-29T12:04:23.946Z,998.57
2018-05-29T12:05:23.964Z,998.57
2018-05-29T12:06:24.019Z,998.58
2018-05-29T12:07:24.031Z,998.57
2018-05-29T12:08:24.047Z,998.60
2018-05-29T12:09:24.073Z,998.60